Terminal Aerodrome Forecast
Issued by NWS Northern Indiana

Home | Current Version | Previous Version | Graphics & Text | Print | Product List | Glossary On
Versions: 1 2 3 4 5 6 7 8 9 10 11 12 13
000
FTUS43 KIWX 121700
TAFFWA
TAF
KFWA 121721Z 1218/1318 19011KT P6SM SCT025 BKN100
      TEMPO 1219/1222 -RA BKN020 OVC040
     FM122200 21010KT P6SM BKN040
     FM130900 24008KT 4SM TSRA BKN015 OVC030CB
     FM131400 24011KT P6SM OVC010=

USA.gov is the U.S. government's official web portal to all federal, state and local government web resources and services.